A7ABI ELLX-EDDF
Flight info
| Callsign | A7ABI |
|---|---|
| Flight time | N/A |
| Altitude | 23000 |
| Route | ASMOX1P ASMOX Y891 LULAT Y890 KULZO T847 IMCOM IMCOM1A |
| Aircraft | SF50/L-SDGRWY/L |
Departure
| Time | 2026-05-07 12:55 |
|---|---|
| Airport | Luxembourg-Findel International Airport (ELLX) |
Arrival
| Time | N/A |
|---|---|
| Airport | Frankfurt Main Airport (EDDF) |
| Time | Latitude | Longitude | Altitude | Speed | Heading |
|---|---|---|---|---|---|
| 2026-05-07 12:38 | 49.62489 | 6.19895 | 1190 ft | 0 kts | 319° |
| 2026-05-07 12:52 | 49.62490 | 6.19891 | 1190 ft | 1 kts | 240° |
| 2026-05-07 12:52 | 49.62482 | 6.19889 | 1190 ft | 5 kts | 166° |
| 2026-05-07 12:52 | 49.62434 | 6.19961 | 1190 ft | 12 kts | 142° |
| 2026-05-07 12:52 | 49.62386 | 6.19985 | 1192 ft | 8 kts | 238° |
| 2026-05-07 12:53 | 49.62347 | 6.19887 | 1192 ft | 14 kts | 239° |
| 2026-05-07 12:53 | 49.62292 | 6.19726 | 1192 ft | 20 kts | 242° |
| 2026-05-07 12:53 | 49.62229 | 6.19560 | 1191 ft | 7 kts | 223° |
| 2026-05-07 12:53 | 49.62182 | 6.19563 | 1193 ft | 8 kts | 164° |
| 2026-05-07 12:54 | 49.62150 | 6.19583 | 1196 ft | 6 kts | 142° |
| 2026-05-07 12:54 | 49.62118 | 6.19615 | 1200 ft | 5 kts | 148° |
| 2026-05-07 12:54 | 49.62096 | 6.19682 | 1201 ft | 9 kts | 73° |
| 2026-05-07 12:54 | 49.62105 | 6.19705 | 1202 ft | 16 kts | 58° |
| 2026-05-07 12:55 | 49.62304 | 6.20234 | 1205 ft | 95 kts | 60° |
| 2026-05-07 12:55 | 49.62669 | 6.21291 | 1626 ft | 111 kts | 61° |
| 2026-05-07 12:55 | 49.63080 | 6.22434 | 1820 ft | 137 kts | 57° |
| 2026-05-07 12:55 | 49.63617 | 6.23774 | 1959 ft | 156 kts | 58° |
| 2026-05-07 12:56 | 49.64182 | 6.25273 | 2219 ft | 171 kts | 59° |
| 2026-05-07 12:56 | 49.64777 | 6.26874 | 2481 ft | 170 kts | 59° |
| 2026-05-07 12:56 | 49.65351 | 6.28421 | 2803 ft | 168 kts | 59° |
| 2026-05-07 12:56 | 49.65945 | 6.30021 | 3194 ft | 172 kts | 59° |
| 2026-05-07 12:57 | 49.66523 | 6.31585 | 3671 ft | 166 kts | 59° |
| 2026-05-07 12:57 | 49.67111 | 6.33179 | 4188 ft | 173 kts | 58° |
| 2026-05-07 12:57 | 49.67705 | 6.34782 | 4706 ft | 172 kts | 59° |
| 2026-05-07 12:57 | 49.68343 | 6.36336 | 5211 ft | 172 kts | 46° |
| 2026-05-07 12:58 | 49.69423 | 6.37045 | 5713 ft | 173 kts | 2° |
| 2026-05-07 12:58 | 49.70597 | 6.36679 | 6230 ft | 174 kts | 342° |
| 2026-05-07 12:58 | 49.71757 | 6.36121 | 6763 ft | 172 kts | 343° |
| 2026-05-07 12:58 | 49.72926 | 6.35595 | 7378 ft | 179 kts | 343° |
| 2026-05-07 12:59 | 49.74122 | 6.35045 | 8011 ft | 180 kts | 342° |
| 2026-05-07 12:59 | 49.75330 | 6.34491 | 8651 ft | 182 kts | 342° |
| 2026-05-07 12:59 | 49.76521 | 6.33949 | 9403 ft | 180 kts | 342° |
| 2026-05-07 12:59 | 49.77717 | 6.33396 | 10177 ft | 180 kts | 341° |
| 2026-05-07 13:00 | 49.78920 | 6.32847 | 10898 ft | 179 kts | 341° |
| 2026-05-07 13:00 | 49.80113 | 6.32302 | 11641 ft | 177 kts | 341° |
| 2026-05-07 13:00 | 49.81283 | 6.31765 | 12392 ft | 173 kts | 341° |
| 2026-05-07 13:00 | 49.82421 | 6.31248 | 13158 ft | 167 kts | 340° |
| 2026-05-07 13:01 | 49.83533 | 6.30731 | 13813 ft | 170 kts | 340° |
| 2026-05-07 13:01 | 49.84694 | 6.30196 | 14291 ft | 177 kts | 340° |
| 2026-05-07 13:01 | 49.85898 | 6.29639 | 14704 ft | 189 kts | 341° |
| 2026-05-07 13:01 | 49.87192 | 6.29045 | 15085 ft | 200 kts | 341° |
| 2026-05-07 13:02 | 49.88547 | 6.28418 | 15470 ft | 206 kts | 341° |
| 2026-05-07 13:02 | 49.89959 | 6.28022 | 15843 ft | 209 kts | 358° |
| 2026-05-07 13:02 | 49.91402 | 6.28420 | 16223 ft | 214 kts | 18° |
| 2026-05-07 13:02 | 49.92762 | 6.29395 | 16607 ft | 215 kts | 24° |
| 2026-05-07 13:03 | 49.94131 | 6.30368 | 17006 ft | 217 kts | 22° |
| 2026-05-07 13:03 | 49.95507 | 6.31339 | 17403 ft | 218 kts | 23° |
| 2026-05-07 13:03 | 49.96884 | 6.32322 | 17811 ft | 218 kts | 23° |
| 2026-05-07 13:03 | 49.98262 | 6.33309 | 18212 ft | 219 kts | 23° |
| 2026-05-07 13:04 | 49.99656 | 6.34305 | 18581 ft | 222 kts | 23° |
| 2026-05-07 13:04 | 50.01065 | 6.35314 | 18935 ft | 224 kts | 23° |
| 2026-05-07 13:04 | 50.02487 | 6.36330 | 19309 ft | 225 kts | 23° |
| 2026-05-07 13:04 | 50.03898 | 6.37342 | 19670 ft | 227 kts | 23° |
| 2026-05-07 13:05 | 50.05349 | 6.38383 | 20046 ft | 227 kts | 23° |
| 2026-05-07 13:05 | 50.06774 | 6.39403 | 20415 ft | 229 kts | 23° |
| 2026-05-07 13:05 | 50.08223 | 6.40455 | 20796 ft | 231 kts | 25° |
| 2026-05-07 13:05 | 50.09518 | 6.41946 | 21175 ft | 233 kts | 40° |
| 2026-05-07 13:06 | 50.10745 | 6.43601 | 21558 ft | 234 kts | 38° |
| 2026-05-07 13:06 | 50.12002 | 6.45210 | 21964 ft | 234 kts | 38° |
| 2026-05-07 13:06 | 50.13253 | 6.46836 | 22366 ft | 233 kts | 39° |
| 2026-05-07 13:06 | 50.14488 | 6.48462 | 22770 ft | 232 kts | 39° |
| 2026-05-07 13:07 | 50.15732 | 6.50097 | 23013 ft | 240 kts | 38° |
| 2026-05-07 13:07 | 50.17054 | 6.51825 | 23025 ft | 254 kts | 39° |
| 2026-05-07 13:07 | 50.18441 | 6.53643 | 23023 ft | 265 kts | 39° |
| 2026-05-07 13:07 | 50.19873 | 6.55526 | 23023 ft | 273 kts | 39° |
| 2026-05-07 13:08 | 50.21348 | 6.57465 | 23032 ft | 281 kts | 39° |
| 2026-05-07 13:08 | 50.22865 | 6.59457 | 23033 ft | 288 kts | 39° |
| 2026-05-07 13:08 | 50.24418 | 6.61503 | 23035 ft | 296 kts | 39° |
| 2026-05-07 13:08 | 50.26007 | 6.63601 | 23033 ft | 302 kts | 39° |
| 2026-05-07 13:09 | 50.27627 | 6.65740 | 23036 ft | 307 kts | 39° |
| 2026-05-07 13:09 | 50.29248 | 6.67879 | 23039 ft | 310 kts | 39° |
| 2026-05-07 13:09 | 50.30904 | 6.70072 | 23039 ft | 312 kts | 40° |
| 2026-05-07 13:09 | 50.32355 | 6.72603 | 23028 ft | 315 kts | 55° |
| 2026-05-07 13:10 | 50.33367 | 6.75646 | 23023 ft | 317 kts | 69° |
| 2026-05-07 13:10 | 50.33869 | 6.79007 | 23022 ft | 318 kts | 85° |
| 2026-05-07 13:10 | 50.33830 | 6.82458 | 23028 ft | 317 kts | 94° |
| 2026-05-07 13:10 | 50.33719 | 6.85906 | 23039 ft | 318 kts | 93° |
| 2026-05-07 13:11 | 50.33626 | 6.89380 | 23039 ft | 319 kts | 93° |
| 2026-05-07 13:11 | 50.33528 | 6.92856 | 23036 ft | 320 kts | 93° |
| 2026-05-07 13:11 | 50.33421 | 6.96342 | 23036 ft | 320 kts | 93° |
| 2026-05-07 13:11 | 50.33314 | 6.99807 | 23038 ft | 319 kts | 93° |
| 2026-05-07 13:12 | 50.33210 | 7.03238 | 23041 ft | 320 kts | 93° |
| 2026-05-07 13:12 | 50.33102 | 7.06712 | 23042 ft | 319 kts | 94° |
| 2026-05-07 13:12 | 50.32658 | 7.10100 | 23035 ft | 318 kts | 111° |
| 2026-05-07 13:12 | 50.31554 | 7.13074 | 23036 ft | 316 kts | 131° |
| 2026-05-07 13:13 | 50.29907 | 7.15312 | 23039 ft | 313 kts | 149° |